TFL5606 EHAM-LGIR
Flight info
| Callsign | TFL5606 |
|---|---|
| Flight time | N/A |
| Altitude | 37000 |
| Route | RENDI2N EDUPO Z739 MISGO DCT DOJOH DCT DODEN DCT NEGIX DCT DINKU M867 XERUM DCT BAVAX DCT RADIZ DCT NIPEL DCT ABISO DCT NEMEK DCT VRANA DCT PETAK DCT PINDO UL607 GIVIS T514 XAVIS XAVIS1A |
| Aircraft | B738/M-SDE3/L |
Departure
| Time | N/A |
|---|---|
| Airport | Amsterdam Airport Schiphol (EHAM) |
Arrival
| Time | 2026-05-05 10:08 |
|---|---|
| Airport | Heraklion International Nikos Kazantzakis Airport (LGIR) |
| Time | Latitude | Longitude | Altitude | Speed | Heading |
|---|---|---|---|---|---|
| 2026-05-05 08:30 | 44.52022 | 16.61894 | 37041 ft | 455 kts | 142° |
| 2026-05-05 08:31 | 44.47280 | 16.67678 | 37048 ft | 456 kts | 142° |
| 2026-05-05 08:31 | 44.42462 | 16.73540 | 37042 ft | 458 kts | 142° |
| 2026-05-05 08:32 | 44.37647 | 16.79383 | 37052 ft | 459 kts | 142° |
| 2026-05-05 08:32 | 44.32814 | 16.85238 | 37052 ft | 460 kts | 142° |
| 2026-05-05 08:33 | 44.27997 | 16.91061 | 37049 ft | 460 kts | 142° |
| 2026-05-05 08:33 | 44.23152 | 16.96905 | 37059 ft | 461 kts | 142° |
| 2026-05-05 08:34 | 44.18294 | 17.02750 | 37062 ft | 460 kts | 142° |
| 2026-05-05 08:34 | 44.13441 | 17.08575 | 37064 ft | 460 kts | 142° |
| 2026-05-05 08:35 | 44.08586 | 17.14390 | 37073 ft | 460 kts | 142° |
| 2026-05-05 08:35 | 44.03763 | 17.20155 | 37066 ft | 460 kts | 142° |
| 2026-05-05 08:36 | 43.98910 | 17.25941 | 37071 ft | 459 kts | 142° |
| 2026-05-05 08:36 | 43.94050 | 17.31723 | 37079 ft | 460 kts | 142° |
| 2026-05-05 08:37 | 43.89247 | 17.37426 | 37086 ft | 460 kts | 142° |
| 2026-05-05 08:37 | 43.84326 | 17.43255 | 37083 ft | 460 kts | 143° |
| 2026-05-05 08:38 | 43.79518 | 17.48941 | 37092 ft | 461 kts | 142° |
| 2026-05-05 08:38 | 43.76208 | 17.52845 | 37092 ft | 462 kts | 143° |
| 2026-05-05 08:39 | 43.69185 | 17.59825 | 37100 ft | 460 kts | 150° |
| 2026-05-05 08:39 | 43.63817 | 17.64674 | 37104 ft | 461 kts | 150° |
| 2026-05-05 08:40 | 43.58451 | 17.69566 | 37091 ft | 462 kts | 150° |
| 2026-05-05 08:40 | 43.53104 | 17.74496 | 37116 ft | 463 kts | 150° |
| 2026-05-05 08:41 | 43.47746 | 17.79446 | 37107 ft | 464 kts | 149° |
| 2026-05-05 08:41 | 43.42378 | 17.84399 | 37100 ft | 465 kts | 149° |
| 2026-05-05 08:42 | 43.37003 | 17.89345 | 37117 ft | 465 kts | 149° |
| 2026-05-05 08:42 | 43.31615 | 17.94290 | 37102 ft | 466 kts | 149° |
| 2026-05-05 08:43 | 43.26251 | 17.99203 | 37103 ft | 466 kts | 149° |
| 2026-05-05 08:43 | 43.20850 | 18.04139 | 37106 ft | 466 kts | 149° |
| 2026-05-05 08:44 | 43.15437 | 18.09076 | 37095 ft | 466 kts | 150° |
| 2026-05-05 08:44 | 43.10066 | 18.13963 | 37106 ft | 466 kts | 150° |
| 2026-05-05 08:45 | 43.04666 | 18.18867 | 37117 ft | 465 kts | 150° |
| 2026-05-05 08:45 | 42.99267 | 18.23758 | 37117 ft | 465 kts | 150° |
| 2026-05-05 08:46 | 42.93871 | 18.28636 | 37118 ft | 465 kts | 150° |
| 2026-05-05 08:46 | 42.88479 | 18.33502 | 37118 ft | 465 kts | 150° |
| 2026-05-05 08:47 | 42.83081 | 18.38361 | 37126 ft | 465 kts | 150° |
| 2026-05-05 08:47 | 42.77681 | 18.43212 | 37132 ft | 465 kts | 150° |
| 2026-05-05 08:48 | 42.72268 | 18.48064 | 37131 ft | 466 kts | 150° |
| 2026-05-05 08:48 | 42.66832 | 18.52926 | 37130 ft | 468 kts | 150° |
| 2026-05-05 08:49 | 42.61413 | 18.57762 | 37134 ft | 470 kts | 150° |
| 2026-05-05 08:49 | 42.55937 | 18.62640 | 37136 ft | 471 kts | 150° |
| 2026-05-05 08:50 | 42.50442 | 18.67526 | 37116 ft | 472 kts | 150° |
| 2026-05-05 08:50 | 42.44950 | 18.72397 | 37124 ft | 472 kts | 150° |
| 2026-05-05 08:51 | 42.39441 | 18.77273 | 37147 ft | 473 kts | 150° |
| 2026-05-05 08:51 | 42.33916 | 18.82151 | 37148 ft | 474 kts | 150° |
| 2026-05-05 08:52 | 42.28418 | 18.86998 | 37140 ft | 475 kts | 150° |
| 2026-05-05 08:52 | 42.22877 | 18.91871 | 37165 ft | 475 kts | 150° |
| 2026-05-05 08:53 | 42.17329 | 18.96740 | 37145 ft | 476 kts | 150° |
| 2026-05-05 08:53 | 42.11769 | 19.01610 | 37136 ft | 476 kts | 150° |
| 2026-05-05 08:54 | 42.06293 | 19.06395 | 37141 ft | 475 kts | 150° |
| 2026-05-05 08:54 | 42.00706 | 19.11267 | 37121 ft | 475 kts | 150° |
| 2026-05-05 08:55 | 41.95158 | 19.16096 | 37144 ft | 475 kts | 150° |
| 2026-05-05 08:55 | 41.89605 | 19.20918 | 37128 ft | 475 kts | 150° |
| 2026-05-05 08:56 | 41.84986 | 19.24923 | 37140 ft | 475 kts | 150° |
| 2026-05-05 08:56 | 41.78495 | 19.30552 | 37143 ft | 476 kts | 149° |
| 2026-05-05 08:57 | 41.73474 | 19.36380 | 37160 ft | 479 kts | 137° |
| 2026-05-05 08:57 | 41.69535 | 19.41613 | 37158 ft | 480 kts | 137° |
| 2026-05-05 08:58 | 41.64799 | 19.47890 | 37147 ft | 481 kts | 137° |
| 2026-05-05 08:58 | 41.59995 | 19.54166 | 37151 ft | 481 kts | 137° |
| 2026-05-05 08:59 | 41.55184 | 19.60394 | 37155 ft | 482 kts | 137° |
| 2026-05-05 08:59 | 41.50392 | 19.66578 | 37145 ft | 483 kts | 137° |
| 2026-05-05 09:00 | 41.45558 | 19.72805 | 37158 ft | 483 kts | 138° |
| 2026-05-05 09:00 | 41.40710 | 19.79037 | 37155 ft | 484 kts | 137° |
| 2026-05-05 09:01 | 41.35853 | 19.85271 | 37155 ft | 485 kts | 137° |
| 2026-05-05 09:01 | 41.30987 | 19.91501 | 37150 ft | 486 kts | 137° |
| 2026-05-05 09:02 | 41.26110 | 19.97732 | 37143 ft | 487 kts | 137° |
| 2026-05-05 09:02 | 41.21222 | 20.03963 | 37147 ft | 486 kts | 137° |
| 2026-05-05 09:03 | 41.16372 | 20.10132 | 37146 ft | 485 kts | 137° |
| 2026-05-05 09:03 | 41.11494 | 20.16325 | 37158 ft | 484 kts | 137° |
| 2026-05-05 09:04 | 41.06614 | 20.22506 | 37138 ft | 484 kts | 137° |
| 2026-05-05 09:04 | 41.01733 | 20.28674 | 37129 ft | 485 kts | 137° |
| 2026-05-05 09:05 | 40.96852 | 20.34832 | 37154 ft | 485 kts | 137° |
| 2026-05-05 09:05 | 40.91992 | 20.40949 | 37130 ft | 485 kts | 137° |
| 2026-05-05 09:06 | 40.87102 | 20.47083 | 37128 ft | 485 kts | 137° |
| 2026-05-05 09:06 | 40.82198 | 20.53225 | 37139 ft | 486 kts | 137° |
| 2026-05-05 09:07 | 40.77279 | 20.59377 | 37135 ft | 486 kts | 137° |
| 2026-05-05 09:07 | 40.72362 | 20.65512 | 37119 ft | 487 kts | 137° |
| 2026-05-05 09:08 | 40.67473 | 20.71599 | 37126 ft | 487 kts | 137° |
| 2026-05-05 09:08 | 40.62531 | 20.77740 | 37136 ft | 487 kts | 137° |
| 2026-05-05 09:09 | 40.57596 | 20.83859 | 37130 ft | 488 kts | 137° |
| 2026-05-05 09:09 | 40.52651 | 20.89979 | 37131 ft | 488 kts | 137° |
| 2026-05-05 09:10 | 40.47735 | 20.96047 | 37127 ft | 488 kts | 137° |
| 2026-05-05 09:10 | 40.42719 | 21.01937 | 37122 ft | 488 kts | 139° |
| 2026-05-05 09:11 | 40.37530 | 21.07837 | 37130 ft | 488 kts | 139° |
| 2026-05-05 09:11 | 40.32413 | 21.13677 | 37125 ft | 488 kts | 139° |
| 2026-05-05 09:12 | 40.27309 | 21.19531 | 37133 ft | 488 kts | 139° |
| 2026-05-05 09:12 | 40.22205 | 21.25383 | 37127 ft | 488 kts | 139° |
| 2026-05-05 09:13 | 40.17091 | 21.31233 | 37114 ft | 488 kts | 139° |
| 2026-05-05 09:13 | 40.11982 | 21.37063 | 37122 ft | 488 kts | 139° |
| 2026-05-05 09:14 | 40.06871 | 21.42883 | 37124 ft | 487 kts | 139° |
| 2026-05-05 09:14 | 40.01753 | 21.48700 | 37133 ft | 488 kts | 139° |
| 2026-05-05 09:15 | 39.96631 | 21.54510 | 37121 ft | 488 kts | 139° |
| 2026-05-05 09:15 | 39.91540 | 21.60266 | 37115 ft | 488 kts | 139° |
| 2026-05-05 09:16 | 39.86411 | 21.66050 | 37135 ft | 487 kts | 139° |
| 2026-05-05 09:16 | 39.81278 | 21.71828 | 37128 ft | 488 kts | 139° |
| 2026-05-05 09:17 | 39.76144 | 21.77599 | 37113 ft | 488 kts | 139° |
| 2026-05-05 09:17 | 39.71005 | 21.83364 | 37112 ft | 488 kts | 139° |
| 2026-05-05 09:18 | 39.65861 | 21.89123 | 37112 ft | 488 kts | 139° |
| 2026-05-05 09:18 | 39.60710 | 21.94878 | 37110 ft | 488 kts | 139° |
| 2026-05-05 09:19 | 39.55565 | 22.00614 | 37107 ft | 488 kts | 139° |
| 2026-05-05 09:19 | 39.50414 | 22.06345 | 37112 ft | 488 kts | 139° |
| 2026-05-05 09:20 | 39.45298 | 22.12026 | 37110 ft | 488 kts | 139° |
| 2026-05-05 09:20 | 39.40107 | 22.17778 | 37107 ft | 488 kts | 139° |
| 2026-05-05 09:21 | 39.34978 | 22.23451 | 37104 ft | 488 kts | 139° |
| 2026-05-05 09:21 | 39.29810 | 22.29155 | 37113 ft | 488 kts | 139° |
| 2026-05-05 09:22 | 39.24635 | 22.34855 | 37112 ft | 489 kts | 139° |
| 2026-05-05 09:22 | 39.19454 | 22.40550 | 37106 ft | 489 kts | 139° |
| 2026-05-05 09:23 | 39.14270 | 22.46238 | 37130 ft | 489 kts | 139° |
| 2026-05-05 09:23 | 39.09083 | 22.51917 | 37092 ft | 490 kts | 139° |
| 2026-05-05 09:24 | 39.03883 | 22.57598 | 37112 ft | 490 kts | 139° |
| 2026-05-05 09:24 | 38.98722 | 22.63226 | 37111 ft | 490 kts | 139° |
| 2026-05-05 09:25 | 38.93520 | 22.68887 | 37106 ft | 490 kts | 139° |
| 2026-05-05 09:25 | 38.88317 | 22.74539 | 37100 ft | 489 kts | 139° |
| 2026-05-05 09:26 | 38.83117 | 22.80176 | 37115 ft | 489 kts | 139° |
| 2026-05-05 09:26 | 38.77913 | 22.85806 | 37102 ft | 489 kts | 139° |
| 2026-05-05 09:27 | 38.72709 | 22.91424 | 37109 ft | 489 kts | 139° |
| 2026-05-05 09:27 | 38.67504 | 22.97033 | 37106 ft | 489 kts | 139° |
| 2026-05-05 09:28 | 38.62293 | 23.02637 | 37102 ft | 489 kts | 139° |
| 2026-05-05 09:28 | 38.57119 | 23.08192 | 37098 ft | 489 kts | 139° |
| 2026-05-05 09:29 | 38.51904 | 23.13779 | 37109 ft | 489 kts | 140° |
| 2026-05-05 09:29 | 38.46690 | 23.19354 | 37104 ft | 489 kts | 140° |
| 2026-05-05 09:30 | 38.41468 | 23.24926 | 37099 ft | 489 kts | 140° |
| 2026-05-05 09:30 | 38.36249 | 23.30485 | 37100 ft | 489 kts | 140° |
| 2026-05-05 09:31 | 38.31055 | 23.36007 | 37104 ft | 489 kts | 140° |
| 2026-05-05 09:31 | 38.25830 | 23.41551 | 37095 ft | 489 kts | 140° |
| 2026-05-05 09:32 | 38.20597 | 23.47095 | 37106 ft | 488 kts | 140° |
| 2026-05-05 09:32 | 38.15377 | 23.52611 | 37071 ft | 487 kts | 140° |
| 2026-05-05 09:33 | 38.10163 | 23.58101 | 37070 ft | 486 kts | 140° |
| 2026-05-05 09:33 | 38.04960 | 23.63570 | 37076 ft | 485 kts | 140° |
| 2026-05-05 09:34 | 37.99766 | 23.69023 | 37063 ft | 484 kts | 140° |
| 2026-05-05 09:34 | 37.94600 | 23.74437 | 37103 ft | 484 kts | 140° |
| 2026-05-05 09:35 | 37.89413 | 23.79886 | 37109 ft | 484 kts | 138° |
| 2026-05-05 09:35 | 37.82741 | 23.89418 | 37104 ft | 483 kts | 128° |
| 2026-05-05 09:36 | 37.78474 | 23.95979 | 37097 ft | 483 kts | 128° |
| 2026-05-05 09:36 | 37.74143 | 24.02499 | 37104 ft | 483 kts | 129° |
| 2026-05-05 09:37 | 37.69791 | 24.08982 | 37108 ft | 483 kts | 129° |
| 2026-05-05 09:37 | 37.65466 | 24.15410 | 37102 ft | 484 kts | 129° |
| 2026-05-05 09:38 | 37.61108 | 24.21884 | 37104 ft | 484 kts | 129° |
| 2026-05-05 09:38 | 37.56755 | 24.28262 | 37079 ft | 468 kts | 134° |
| 2026-05-05 09:39 | 37.54383 | 24.30974 | 37084 ft | 454 kts | 143° |
| 2026-05-05 09:39 | 37.51795 | 24.33136 | 37097 ft | 439 kts | 149° |
| 2026-05-05 09:39 | 37.46587 | 24.37136 | 37123 ft | 443 kts | 149° |
| 2026-05-05 09:40 | 37.41243 | 24.41263 | 37118 ft | 457 kts | 149° |
| 2026-05-05 09:40 | 37.35830 | 24.45488 | 37105 ft | 458 kts | 149° |
| 2026-05-05 09:41 | 37.30456 | 24.49694 | 37110 ft | 458 kts | 149° |
| 2026-05-05 09:41 | 37.25045 | 24.53923 | 37108 ft | 457 kts | 149° |
| 2026-05-05 09:42 | 37.19662 | 24.58120 | 37105 ft | 454 kts | 149° |
| 2026-05-05 09:42 | 37.14305 | 24.62289 | 37091 ft | 451 kts | 149° |
| 2026-05-05 09:43 | 37.08976 | 24.66430 | 37109 ft | 449 kts | 149° |
| 2026-05-05 09:43 | 37.03677 | 24.70540 | 37114 ft | 448 kts | 149° |
| 2026-05-05 09:44 | 36.98404 | 24.74624 | 37117 ft | 448 kts | 149° |
| 2026-05-05 09:44 | 36.93955 | 24.78065 | 37116 ft | 448 kts | 149° |
| 2026-05-05 09:45 | 36.88652 | 24.82169 | 37113 ft | 449 kts | 149° |
| 2026-05-05 09:45 | 36.83336 | 24.86300 | 37108 ft | 450 kts | 149° |
| 2026-05-05 09:46 | 36.78036 | 24.90412 | 37116 ft | 452 kts | 149° |
| 2026-05-05 09:46 | 36.72684 | 24.94556 | 37121 ft | 454 kts | 149° |
| 2026-05-05 09:47 | 36.67293 | 24.98711 | 37122 ft | 455 kts | 149° |
| 2026-05-05 09:47 | 36.61880 | 25.02850 | 37133 ft | 457 kts | 149° |
| 2026-05-05 09:48 | 36.56466 | 25.06984 | 36442 ft | 459 kts | 149° |
| 2026-05-05 09:48 | 36.53744 | 25.09060 | 35458 ft | 470 kts | 149° |
| 2026-05-05 09:48 | 36.50920 | 25.11213 | 34228 ft | 482 kts | 149° |
| 2026-05-05 09:49 | 36.48044 | 25.13404 | 32873 ft | 488 kts | 149° |
| 2026-05-05 09:49 | 36.45122 | 25.15630 | 31452 ft | 496 kts | 149° |
| 2026-05-05 09:49 | 36.42179 | 25.17871 | 30164 ft | 498 kts | 148° |
| 2026-05-05 09:49 | 36.39213 | 25.20127 | 28788 ft | 498 kts | 148° |
| 2026-05-05 09:50 | 36.36282 | 25.22355 | 27710 ft | 490 kts | 149° |
| 2026-05-05 09:50 | 36.33407 | 25.24537 | 26782 ft | 479 kts | 149° |
| 2026-05-05 09:50 | 36.30589 | 25.26675 | 25615 ft | 473 kts | 149° |
| 2026-05-05 09:50 | 36.27783 | 25.28801 | 24374 ft | 470 kts | 149° |
| 2026-05-05 09:51 | 36.25006 | 25.30903 | 23093 ft | 465 kts | 149° |
| 2026-05-05 09:51 | 36.22261 | 25.32979 | 21748 ft | 459 kts | 149° |
| 2026-05-05 09:51 | 36.19553 | 25.35026 | 20511 ft | 452 kts | 149° |
| 2026-05-05 09:51 | 36.16890 | 25.37037 | 19326 ft | 445 kts | 149° |
| 2026-05-05 09:52 | 36.14267 | 25.39016 | 18167 ft | 438 kts | 149° |
| 2026-05-05 09:52 | 36.11643 | 25.40863 | 16915 ft | 430 kts | 156° |
| 2026-05-05 09:52 | 36.08895 | 25.42123 | 16040 ft | 418 kts | 164° |
| 2026-05-05 09:52 | 36.06180 | 25.43145 | 15735 ft | 402 kts | 164° |
| 2026-05-05 09:53 | 36.03537 | 25.44137 | 15375 ft | 392 kts | 164° |
| 2026-05-05 09:53 | 36.00952 | 25.45127 | 14996 ft | 385 kts | 163° |
| 2026-05-05 09:53 | 35.98420 | 25.46117 | 14628 ft | 378 kts | 163° |
| 2026-05-05 09:53 | 35.95938 | 25.47101 | 14245 ft | 373 kts | 162° |
| 2026-05-05 09:54 | 35.93484 | 25.48083 | 13873 ft | 368 kts | 162° |
| 2026-05-05 09:54 | 35.91061 | 25.49055 | 13465 ft | 363 kts | 162° |
| 2026-05-05 09:54 | 35.88675 | 25.50014 | 13093 ft | 358 kts | 162° |
| 2026-05-05 09:54 | 35.86351 | 25.50948 | 12736 ft | 353 kts | 162° |
| 2026-05-05 09:55 | 35.84023 | 25.51883 | 12302 ft | 350 kts | 162° |
| 2026-05-05 09:55 | 35.81722 | 25.52806 | 11943 ft | 346 kts | 162° |
| 2026-05-05 09:55 | 35.79448 | 25.53717 | 11601 ft | 341 kts | 162° |
| 2026-05-05 09:55 | 35.77201 | 25.54618 | 11262 ft | 337 kts | 162° |
| 2026-05-05 09:56 | 35.74981 | 25.55507 | 10940 ft | 333 kts | 162° |
| 2026-05-05 09:56 | 35.72786 | 25.56385 | 10611 ft | 330 kts | 162° |
| 2026-05-05 09:56 | 35.70638 | 25.57243 | 10301 ft | 318 kts | 161° |
| 2026-05-05 09:56 | 35.68703 | 25.58358 | 10110 ft | 300 kts | 141° |
| 2026-05-05 09:57 | 35.67116 | 25.59954 | 9827 ft | 293 kts | 138° |
| 2026-05-05 09:57 | 35.65547 | 25.61545 | 9520 ft | 291 kts | 139° |
| 2026-05-05 09:57 | 35.63976 | 25.63109 | 9221 ft | 289 kts | 139° |
| 2026-05-05 09:57 | 35.62428 | 25.64634 | 8941 ft | 288 kts | 140° |
| 2026-05-05 09:58 | 35.60644 | 25.65775 | 8602 ft | 289 kts | 171° |
| 2026-05-05 09:58 | 35.58723 | 25.65539 | 8360 ft | 281 kts | 207° |
| 2026-05-05 09:58 | 35.57293 | 25.64054 | 8113 ft | 264 kts | 244° |
| 2026-05-05 09:58 | 35.56482 | 25.62063 | 7888 ft | 259 kts | 248° |
| 2026-05-05 09:59 | 35.55664 | 25.60091 | 7626 ft | 259 kts | 246° |
| 2026-05-05 09:59 | 35.54789 | 25.58133 | 7371 ft | 265 kts | 245° |
| 2026-05-05 09:59 | 35.53844 | 25.56140 | 7106 ft | 273 kts | 243° |
| 2026-05-05 09:59 | 35.52849 | 25.54132 | 6815 ft | 274 kts | 242° |
| 2026-05-05 10:00 | 35.51840 | 25.52150 | 6517 ft | 274 kts | 241° |
| 2026-05-05 10:00 | 35.50819 | 25.50181 | 6229 ft | 272 kts | 241° |
| 2026-05-05 10:00 | 35.49811 | 25.48254 | 5950 ft | 271 kts | 241° |
| 2026-05-05 10:00 | 35.48794 | 25.46320 | 5660 ft | 269 kts | 241° |
| 2026-05-05 10:01 | 35.47779 | 25.44398 | 5431 ft | 266 kts | 241° |
| 2026-05-05 10:01 | 35.46785 | 25.42520 | 5288 ft | 259 kts | 241° |
| 2026-05-05 10:01 | 35.45657 | 25.40825 | 5136 ft | 258 kts | 219° |
| 2026-05-05 10:01 | 35.43986 | 25.40144 | 5030 ft | 257 kts | 179° |
| 2026-05-05 10:02 | 35.42321 | 25.40779 | 4924 ft | 249 kts | 150° |
| 2026-05-05 10:02 | 35.40828 | 25.41822 | 4716 ft | 246 kts | 149° |
| 2026-05-05 10:02 | 35.39349 | 25.42871 | 4495 ft | 244 kts | 149° |
| 2026-05-05 10:02 | 35.37790 | 25.43616 | 4238 ft | 241 kts | 179° |
| 2026-05-05 10:03 | 35.36234 | 25.43140 | 4050 ft | 225 kts | 216° |
| 2026-05-05 10:03 | 35.35130 | 25.41886 | 3818 ft | 212 kts | 238° |
| 2026-05-05 10:03 | 35.34422 | 25.40348 | 3585 ft | 203 kts | 248° |
| 2026-05-05 10:03 | 35.33835 | 25.38804 | 3377 ft | 197 kts | 250° |
| 2026-05-05 10:04 | 35.33261 | 25.37280 | 3182 ft | 200 kts | 249° |
| 2026-05-05 10:04 | 35.32778 | 25.35697 | 2979 ft | 196 kts | 266° |
| 2026-05-05 10:04 | 35.32875 | 25.34097 | 2779 ft | 185 kts | 279° |
| 2026-05-05 10:04 | 35.32987 | 25.32545 | 2543 ft | 182 kts | 277° |
| 2026-05-05 10:05 | 35.33089 | 25.31004 | 2271 ft | 181 kts | 278° |
| 2026-05-05 10:05 | 35.33219 | 25.29512 | 2010 ft | 176 kts | 278° |
| 2026-05-05 10:05 | 35.33315 | 25.28046 | 1735 ft | 170 kts | 278° |
| 2026-05-05 10:05 | 35.33374 | 25.26662 | 1481 ft | 155 kts | 277° |
| 2026-05-05 10:06 | 35.33460 | 25.25403 | 1269 ft | 146 kts | 279° |
| 2026-05-05 10:06 | 35.33548 | 25.24176 | 1018 ft | 145 kts | 278° |
| 2026-05-05 10:06 | 35.33634 | 25.22951 | 834 ft | 142 kts | 278° |
| 2026-05-05 10:06 | 35.33718 | 25.21737 | 611 ft | 144 kts | 277° |
| 2026-05-05 10:07 | 35.33801 | 25.20536 | 422 ft | 141 kts | 278° |
| 2026-05-05 10:07 | 35.33882 | 25.19319 | 178 ft | 147 kts | 278° |
| 2026-05-05 10:07 | 35.33969 | 25.18128 | 93 ft | 130 kts | 275° |
| 2026-05-05 10:07 | 35.34027 | 25.17287 | 89 ft | 69 kts | 275° |
| 2026-05-05 10:08 | 35.34052 | 25.16919 | 89 ft | 25 kts | 275° |
| 2026-05-05 10:08 | 35.34028 | 25.16856 | 92 ft | 7 kts | 171° |
| 2026-05-05 10:08 | 35.33993 | 25.16904 | 91 ft | 10 kts | 124° |
| 2026-05-05 10:08 | 35.33945 | 25.17011 | 90 ft | 16 kts | 111° |
| 2026-05-05 10:09 | 35.33937 | 25.17145 | 89 ft | 16 kts | 94° |
| 2026-05-05 10:09 | 35.33929 | 25.17277 | 90 ft | 15 kts | 94° |
| 2026-05-05 10:09 | 35.33919 | 25.17403 | 90 ft | 15 kts | 95° |
| 2026-05-05 10:09 | 35.33909 | 25.17490 | 90 ft | 8 kts | 114° |
| 2026-05-05 10:10 | 35.33878 | 25.17502 | 90 ft | 4 kts | 189° |
| 2026-05-05 10:10 | 35.33848 | 25.17497 | 93 ft | 4 kts | 186° |
| 2026-05-05 10:10 | 35.33819 | 25.17494 | 92 ft | 4 kts | 185° |
| 2026-05-05 10:10 | 35.33801 | 25.17471 | 92 ft | 4 kts | 265° |
| 2026-05-05 10:11 | 35.33804 | 25.17440 | 90 ft | 3 kts | 276° |
| 2026-05-05 10:11 | 35.33814 | 25.17421 | 91 ft | 3 kts | 323° |
| 2026-05-05 10:11 | 35.33822 | 25.17413 | 93 ft | 0 kts | 320° |